Time,TemperatureF,DewpointF,PressureIn,WindDirection,WindDirectionDegrees,WindSpeedMPH,WindSpeedGustMPH,Humidity,HourlyPrecipIn,Conditions,Clouds,dailyrainin,SoftwareType,DateUTC
2013-03-06 00:00:00,58.7,55.5,29.73,WSW,255,2.0,2.0,89,0.00,,,0.03,Wunderground v.1.15,2013-03-06 05:00:00,
2013-03-06 00:03:00,58.6,55.4,29.73,WSW,238,1.0,2.0,89,0.00,,,0.00,Wunderground v.1.15,2013-03-06 05:03:00,
2013-03-06 00:09:00,58.4,55.2,29.73,WSW,248,2.0,2.0,89,0.00,,,0.00,Wunderground v.1.15,2013-03-06 05:09:00,
2013-03-06 00:15:00,58.3,55.4,29.73,WSW,246,1.0,2.0,90,0.00,,,0.00,Wunderground v.1.15,2013-03-06 05:15:00,
2013-03-06 00:21:00,58.3,55.1,29.73,WSW,248,2.0,2.0,89,0.00,,,0.00,Wunderground v.1.15,2013-03-06 05:21:00,
2013-03-06 00:27:00,58.4,55.2,29.73,WSW,242,2.0,3.0,89,0.00,,,0.00,Wunderground v.1.15,2013-03-06 05:27:00,
2013-03-06 00:32:00,58.6,55.1,29.73,WSW,256,0.0,2.0,88,0.00,,,0.00,Wunderground v.1.15,2013-03-06 05:32:00,
2013-03-06 00:38:00,58.7,54.8,29.73,WSW,242,2.0,2.0,87,0.00,,,0.00,Wunderground v.1.15,2013-03-06 05:38:00,
2013-03-06 00:44:00,58.6,54.7,29.73,WSW,243,2.0,2.0,87,0.00,,,0.00,Wunderground v.1.15,2013-03-06 05:44:00,
2013-03-06 00:49:00,58.6,54.4,29.72,WSW,252,2.0,10.0,86,0.00,,,0.00,Wunderground v.1.15,2013-03-06 05:49:00,
2013-03-06 00:55:00,58.6,54.4,29.72,WSW,243,2.0,4.0,86,0.00,,,0.00,Wunderground v.1.15,2013-03-06 05:55:00,
2013-03-06 01:00:00,58.4,54.2,29.72,WSW,243,2.0,2.0,86,0.00,,,0.00,Wunderground v.1.15,2013-03-06 06:00:00,
2013-03-06 01:06:00,58.3,54.1,29.72,West,265,3.0,4.0,86,0.00,,,0.00,Wunderground v.1.15,2013-03-06 06:06:00,
2013-03-06 01:12:00,58.1,53.9,29.72,WSW,241,3.0,3.0,86,0.00,,,0.00,Wunderground v.1.15,2013-03-06 06:12:00,
2013-03-06 01:18:00,58.0,53.8,29.72,WSW,253,2.0,6.0,86,0.00,,,0.00,Wunderground v.1.15,2013-03-06 06:18:00,
2013-03-06 01:24:00,57.8,53.6,29.72,WSW,242,2.0,2.0,86,0.00,,,0.00,Wunderground v.1.15,2013-03-06 06:24:00,
2013-03-06 01:30:00,57.5,53.0,29.72,WSW,250,3.0,3.0,85,0.00,,,0.00,Wunderground v.1.15,2013-03-06 06:30:00,
2013-03-06 01:36:00,57.3,52.2,29.72,WSW,245,2.0,4.0,83,0.00,,,0.00,Wunderground v.1.15,2013-03-06 06:36:00,
2013-03-06 01:41:00,57.2,52.1,29.72,WSW,255,0.0,2.0,83,0.00,,,0.00,Wunderground v.1.15,2013-03-06 06:41:00,
2013-03-06 01:47:00,57.0,51.2,29.72,WSW,239,3.0,3.0,81,0.00,,,0.00,Wunderground v.1.15,2013-03-06 06:47:00,
2013-03-06 01:53:00,56.7,50.6,29.72,SW,233,5.0,5.0,80,0.00,,,0.00,Wunderground v.1.15,2013-03-06 06:53:00,
2013-03-06 01:58:00,56.6,50.2,29.72,WSW,246,3.0,5.0,79,0.00,,,0.00,Wunderground v.1.15,2013-03-06 06:58:00,
2013-03-06 02:03:00,56.5,49.7,29.72,WSW,252,2.0,5.0,78,0.00,,,0.00,Wunderground v.1.15,2013-03-06 07:03:00,
2013-03-06 02:08:00,56.3,49.2,29.72,WSW,241,3.0,7.0,77,0.00,,,0.00,Wunderground v.1.15,2013-03-06 07:08:00,
2013-03-06 02:13:00,56.2,48.4,29.72,SW,225,2.0,7.0,75,0.00,,,0.00,Wunderground v.1.15,2013-03-06 07:13:00,
2013-03-06 02:18:00,55.4,45.4,29.73,West,269,2.0,9.0,69,0.00,,,0.00,Wunderground v.1.15,2013-03-06 07:18:00,
2013-03-06 02:23:00,54.5,43.8,29.73,WSW,238,6.0,9.0,67,0.00,,,0.00,Wunderground v.1.15,2013-03-06 07:23:00,
2013-03-06 02:28:00,53.9,42.8,29.73,WNW,286,4.0,11.0,66,0.00,,,0.00,Wunderground v.1.15,2013-03-06 07:28:00,
2013-03-06 02:33:00,53.5,42.0,29.74,WNW,284,4.0,9.0,65,0.00,,,0.00,Wunderground v.1.15,2013-03-06 07:33:00,
2013-03-06 02:38:00,53.2,42.1,29.74,WSW,249,2.0,9.0,66,0.00,,,0.00,Wunderground v.1.15,2013-03-06 07:38:00,
2013-03-06 02:44:00,52.6,41.6,29.74,West,262,2.0,6.0,66,0.00,,,0.00,Wunderground v.1.15,2013-03-06 07:44:00,
2013-03-06 02:49:00,52.2,41.2,29.74,West,272,2.0,6.0,66,0.00,,,0.00,Wunderground v.1.15,2013-03-06 07:49:00,
2013-03-06 02:54:00,51.7,40.3,29.74,West,274,3.0,9.0,65,0.00,,,0.00,Wunderground v.1.15,2013-03-06 07:54:00,
2013-03-06 02:59:00,50.8,39.5,29.74,WSW,249,1.0,9.0,65,0.00,,,0.00,Wunderground v.1.15,2013-03-06 07:59:00,
2013-03-06 03:04:00,50.2,39.3,29.75,WSW,242,5.0,6.0,66,0.00,,,0.00,Wunderground v.1.15,2013-03-06 08:04:00,
2013-03-06 03:09:00,49.6,38.7,29.75,SW,226,2.0,12.0,66,0.00,,,0.00,Wunderground v.1.15,2013-03-06 08:09:00,
2013-03-06 03:14:00,49.2,37.9,29.75,West,259,2.0,7.0,65,0.00,,,0.00,Wunderground v.1.15,2013-03-06 08:14:00,
2013-03-06 03:19:00,48.8,37.9,29.76,West,260,2.0,7.0,66,0.00,,,0.00,Wunderground v.1.15,2013-03-06 08:19:00,
2013-03-06 03:24:00,48.2,36.2,29.76,West,273,5.0,10.0,63,0.00,,,0.00,Wunderground v.1.15,2013-03-06 08:24:00,
2013-03-06 03:29:00,47.6,34.8,29.76,West,277,2.0,10.0,61,0.00,,,0.00,Wunderground v.1.15,2013-03-06 08:29:00,
2013-03-06 03:34:00,46.8,34.0,29.77,WSW,257,3.0,11.0,61,0.00,,,0.00,Wunderground v.1.15,2013-03-06 08:34:00,
2013-03-06 03:39:00,46.4,34.1,29.77,SW,236,4.0,11.0,62,0.00,,,0.00,Wunderground v.1.15,2013-03-06 08:39:00,
2013-03-06 03:44:00,46.0,33.7,29.78,SW,232,6.0,7.0,62,0.00,,,0.00,Wunderground v.1.15,2013-03-06 08:44:00,
2013-03-06 03:49:00,45.7,33.8,29.78,West,262,4.0,7.0,63,0.00,,,0.00,Wunderground v.1.15,2013-03-06 08:49:00,
2013-03-06 03:54:00,45.4,33.9,29.78,WSW,252,3.0,10.0,64,0.00,,,0.00,Wunderground v.1.15,2013-03-06 08:54:00,
2013-03-06 03:59:00,45.2,34.1,29.78,WNW,284,1.0,10.0,65,0.00,,,0.00,Wunderground v.1.15,2013-03-06 08:59:00,
2013-03-06 04:04:00,45.1,34.4,29.79,WNW,290,3.0,5.0,66,0.00,,,0.00,Wunderground v.1.15,2013-03-06 09:04:00,
2013-03-06 04:09:00,44.9,33.8,29.79,West,270,3.0,9.0,65,0.00,,,0.00,Wunderground v.1.15,2013-03-06 09:09:00,
2013-03-06 04:14:00,44.8,33.4,29.80,WNW,284,3.0,11.0,64,0.00,,,0.00,Wunderground v.1.15,2013-03-06 09:14:00,
2013-03-06 04:19:00,44.6,32.8,29.80,WSW,245,5.0,14.0,63,0.00,,,0.00,Wunderground v.1.15,2013-03-06 09:19:00,
2013-03-06 04:24:00,44.5,32.7,29.80,West,260,3.0,10.0,63,0.00,,,0.00,Wunderground v.1.15,2013-03-06 09:24:00,
2013-03-06 04:29:00,44.2,32.0,29.81,WSW,252,6.0,10.0,62,0.00,,,0.00,Wunderground v.1.15,2013-03-06 09:29:00,
2013-03-06 04:34:00,44.1,31.9,29.81,SW,225,5.0,9.0,62,0.00,,,0.00,Wunderground v.1.15,2013-03-06 09:34:00,
2013-03-06 04:39:00,44.1,31.9,29.81,WSW,257,2.0,10.0,62,0.00,,,0.00,Wunderground v.1.15,2013-03-06 09:39:00,
2013-03-06 04:44:00,43.9,31.7,29.81,WSW,257,3.0,5.0,62,0.00,,,0.00,Wunderground v.1.15,2013-03-06 09:44:00,
2013-03-06 04:49:00,43.8,31.6,29.81,WNW,287,5.0,8.0,62,0.00,,,0.00,Wunderground v.1.15,2013-03-06 09:49:00,
2013-03-06 04:54:00,43.6,31.4,29.81,SW,235,6.0,6.0,62,0.00,,,0.00,Wunderground v.1.15,2013-03-06 09:54:00,
2013-03-06 04:59:00,43.5,31.3,29.81,WSW,250,3.0,8.0,62,0.00,,,0.00,Wunderground v.1.15,2013-03-06 09:59:00,
2013-03-06 05:04:00,43.3,31.1,29.81,West,272,1.0,5.0,62,0.00,,,0.00,Wunderground v.1.15,2013-03-06 10:04:00,
2013-03-06 05:09:00,43.2,31.1,29.81,WSW,246,3.0,5.0,62,0.00,,,0.00,Wunderground v.1.15,2013-03-06 10:09:00,
2013-03-06 05:14:00,43.1,31.0,29.82,SW,233,3.0,8.0,62,0.00,,,0.00,Wunderground v.1.15,2013-03-06 10:14:00,
2013-03-06 05:19:00,43.1,30.6,29.82,WNW,297,2.0,8.0,61,0.00,,,0.00,Wunderground v.1.15,2013-03-06 10:19:00,
2013-03-06 05:24:00,42.9,30.8,29.82,West,267,3.0,6.0,62,0.00,,,0.00,Wunderground v.1.15,2013-03-06 10:24:00,
2013-03-06 05:29:00,42.8,30.7,29.82,WSW,256,2.0,6.0,62,0.00,,,0.00,Wunderground v.1.15,2013-03-06 10:29:00,
2013-03-06 05:35:00,42.8,30.7,29.82,SW,235,2.0,5.0,62,0.00,,,0.00,Wunderground v.1.15,2013-03-06 10:35:00,
2013-03-06 05:40:00,42.6,30.1,29.82,WSW,238,3.0,3.0,61,0.00,,,0.00,Wunderground v.1.15,2013-03-06 10:40:00,
2013-03-06 05:45:00,42.5,30.0,29.82,WSW,248,1.0,3.0,61,0.00,,,0.00,Wunderground v.1.15,2013-03-06 10:45:00,
2013-03-06 05:50:00,42.5,30.0,29.82,WSW,252,0.0,2.0,61,0.00,,,0.00,Wunderground v.1.15,2013-03-06 10:50:00,
2013-03-06 05:55:00,42.3,29.4,29.82,WSW,243,3.0,5.0,60,0.00,,,0.00,Wunderground v.1.15,2013-03-06 10:55:00,
2013-03-06 06:00:00,42.5,29.6,29.82,WSW,253,2.0,2.0,60,0.00,,,0.00,Wunderground v.1.15,2013-03-06 11:00:00,
2013-03-06 06:05:00,42.3,29.4,29.82,SW,236,2.0,6.0,60,0.00,,,0.00,Wunderground v.1.15,2013-03-06 11:05:00,
2013-03-06 06:10:00,42.3,29.4,29.82,West,265,2.0,3.0,60,0.00,,,0.00,Wunderground v.1.15,2013-03-06 11:10:00,
2013-03-06 06:15:00,42.3,29.4,29.83,WSW,248,2.0,5.0,60,0.00,,,0.00,Wunderground v.1.15,2013-03-06 11:15:00,
2013-03-06 06:20:00,42.2,29.7,29.83,WSW,249,1.0,3.0,61,0.00,,,0.00,Wunderground v.1.15,2013-03-06 11:20:00,
2013-03-06 06:25:00,42.2,29.7,29.83,WSW,250,3.0,7.0,61,0.00,,,0.00,Wunderground v.1.15,2013-03-06 11:25:00,
2013-03-06 06:30:00,42.1,30.0,29.83,WSW,249,2.0,4.0,62,0.00,,,0.00,Wunderground v.1.15,2013-03-06 11:30:00,
2013-03-06 06:35:00,41.9,29.8,29.83,WSW,257,2.0,6.0,62,0.00,,,0.00,Wunderground v.1.15,2013-03-06 11:35:00,
2013-03-06 06:41:00,41.9,29.8,29.83,WSW,239,1.0,3.0,62,0.00,,,0.00,Wunderground v.1.15,2013-03-06 11:41:00,
2013-03-06 06:45:00,41.8,29.7,29.84,WSW,250,3.0,4.0,62,0.00,,,0.00,Wunderground v.1.15,2013-03-06 11:45:00,
2013-03-06 06:50:00,41.8,30.1,29.84,WSW,246,2.0,2.0,63,0.00,,,0.00,Wunderground v.1.15,2013-03-06 11:50:00,
2013-03-06 06:56:00,41.6,29.5,29.84,WSW,249,2.0,8.0,62,0.00,,,0.00,Wunderground v.1.15,2013-03-06 11:56:00,
2013-03-06 07:01:00,41.6,29.5,29.84,WSW,255,2.0,3.0,62,0.00,,,0.00,Wunderground v.1.15,2013-03-06 12:01:00,
2013-03-06 07:06:00,41.6,29.5,29.84,SW,225,3.0,5.0,62,0.00,,,0.00,Wunderground v.1.15,2013-03-06 12:06:00,
2013-03-06 07:11:00,41.6,29.5,29.84,WSW,243,3.0,3.0,62,0.00,,,0.00,Wunderground v.1.15,2013-03-06 12:11:00,
2013-03-06 07:16:00,41.8,29.7,29.85,West,266,1.0,10.0,62,0.00,,,0.00,Wunderground v.1.15,2013-03-06 12:16:00,
2013-03-06 07:21:00,41.8,29.7,29.85,West,262,1.0,4.0,62,0.00,,,0.00,Wunderground v.1.15,2013-03-06 12:21:00,
2013-03-06 07:26:00,41.9,29.4,29.85,West,262,1.0,8.0,61,0.00,,,0.00,Wunderground v.1.15,2013-03-06 12:26:00,
2013-03-06 07:31:00,42.1,29.6,29.86,West,269,3.0,5.0,61,0.00,,,0.00,Wunderground v.1.15,2013-03-06 12:31:00,
2013-03-06 07:36:00,42.2,29.3,29.86,WSW,248,2.0,7.0,60,0.00,,,0.00,Wunderground v.1.15,2013-03-06 12:36:00,
2013-03-06 07:41:00,42.3,29.0,29.86,WNW,283,4.0,8.0,59,0.00,,,0.00,Wunderground v.1.15,2013-03-06 12:41:00,
2013-03-06 07:46:00,42.5,29.6,29.86,West,260,4.0,10.0,60,0.00,,,0.00,Wunderground v.1.15,2013-03-06 12:46:00,
2013-03-06 07:51:00,42.6,29.7,29.86,West,263,2.0,6.0,60,0.00,,,0.00,Wunderground v.1.15,2013-03-06 12:51:00,
2013-03-06 07:56:00,42.8,29.9,29.86,WSW,252,2.0,10.0,60,0.00,,,0.00,Wunderground v.1.15,2013-03-06 12:56:00,
2013-03-06 08:01:00,43.1,30.1,29.87,West,267,1.0,3.0,60,0.00,,,0.00,Wunderground v.1.15,2013-03-06 13:01:00,
2013-03-06 08:06:00,43.3,30.3,29.87,WSW,239,3.0,10.0,60,0.00,,,0.00,Wunderground v.1.15,2013-03-06 13:06:00,
2013-03-06 08:11:00,43.2,30.6,29.87,West,259,0.0,3.0,61,0.00,,,0.00,Wunderground v.1.15,2013-03-06 13:11:00,
2013-03-06 08:16:00,43.3,30.7,29.87,WSW,257,2.0,6.0,61,0.00,,,0.00,Wunderground v.1.15,2013-03-06 13:16:00,
2013-03-06 08:21:00,43.5,30.9,29.87,WSW,253,5.0,7.0,61,0.00,,,0.00,Wunderground v.1.15,2013-03-06 13:21:00,
2013-03-06 08:26:00,43.3,30.3,29.87,WNW,294,2.0,8.0,60,0.00,,,0.00,Wunderground v.1.15,2013-03-06 13:26:00,
2013-03-06 08:31:00,43.2,30.6,29.87,WSW,249,8.0,8.0,61,0.00,,,0.00,Wunderground v.1.15,2013-03-06 13:31:00,
2013-03-06 08:36:00,43.1,30.6,29.87,West,277,1.0,8.0,61,0.00,,,0.00,Wunderground v.1.15,2013-03-06 13:36:00,
2013-03-06 08:41:00,42.9,30.8,29.87,WSW,246,1.0,5.0,62,0.00,,,0.00,Wunderground v.1.15,2013-03-06 13:41:00,
2013-03-06 08:46:00,42.8,30.7,29.88,West,259,5.0,8.0,62,0.00,,,0.00,Wunderground v.1.15,2013-03-06 13:46:00,
2013-03-06 08:51:00,42.8,30.7,29.88,WSW,253,2.0,6.0,62,0.00,,,0.00,Wunderground v.1.15,2013-03-06 13:51:00,
2013-03-06 08:56:00,42.9,30.8,29.88,West,263,2.0,6.0,62,0.00,,,0.00,Wunderground v.1.15,2013-03-06 13:56:00,
2013-03-06 09:01:00,43.2,29.8,29.89,West,272,6.0,11.0,59,0.00,,,0.00,Wunderground v.1.15,2013-03-06 14:01:00,
2013-03-06 09:06:00,43.5,30.1,29.89,WSW,250,6.0,11.0,59,0.00,,,0.00,Wunderground v.1.15,2013-03-06 14:06:00,
2013-03-06 09:12:00,43.6,30.6,29.89,WSW,250,2.0,4.0,60,0.00,,,0.00,Wunderground v.1.15,2013-03-06 14:12:00,
2013-03-06 09:17:00,43.8,31.2,29.88,West,267,1.0,7.0,61,0.00,,,0.00,Wunderground v.1.15,2013-03-06 14:17:00,
2013-03-06 09:22:00,43.9,30.1,29.88,West,277,3.0,7.0,58,0.00,,,0.00,Wunderground v.1.15,2013-03-06 14:22:00,
2013-03-06 09:27:00,44.1,30.3,29.88,West,281,2.0,7.0,58,0.00,,,0.00,Wunderground v.1.15,2013-03-06 14:27:00,
2013-03-06 09:32:00,44.2,29.9,29.88,West,270,3.0,7.0,57,0.00,,,0.00,Wunderground v.1.15,2013-03-06 14:32:00,
2013-03-06 09:37:00,44.5,28.4,29.88,West,267,1.0,7.0,53,0.00,,,0.00,Wunderground v.1.15,2013-03-06 14:37:00,
2013-03-06 09:42:00,44.6,27.1,29.88,WSW,257,2.0,7.0,50,0.00,,,0.00,Wunderground v.1.15,2013-03-06 14:42:00,
2013-03-06 09:47:00,44.3,25.8,29.88,West,259,1.0,10.0,48,0.00,,,0.00,Wunderground v.1.15,2013-03-06 14:47:00,
2013-03-06 09:52:00,44.5,24.5,29.88,SW,236,7.0,12.0,45,0.00,,,0.00,Wunderground v.1.15,2013-03-06 14:52:00,
2013-03-06 09:57:00,44.6,24.5,29.88,West,281,2.0,12.0,45,0.00,,,0.00,Wunderground v.1.15,2013-03-06 14:57:00,
2013-03-06 10:02:00,44.9,25.3,29.89,WSW,245,1.0,5.0,46,0.00,,,0.00,Wunderground v.1.15,2013-03-06 15:02:00,
2013-03-06 10:07:00,45.2,24.6,29.89,WSW,256,3.0,8.0,44,0.00,,,0.00,Wunderground v.1.15,2013-03-06 15:07:00,
2013-03-06 10:12:00,44.6,24.0,29.89,WSW,250,2.0,7.0,44,0.00,,,0.00,Wunderground v.1.15,2013-03-06 15:12:00,
2013-03-06 10:17:00,44.8,24.2,29.90,WNW,284,3.0,7.0,44,0.00,,,0.00,Wunderground v.1.15,2013-03-06 15:17:00,
2013-03-06 10:22:00,44.8,23.6,29.90,WSW,255,2.0,11.0,43,0.00,,,0.00,Wunderground v.1.15,2013-03-06 15:22:00,
2013-03-06 10:27:00,45.2,24.6,29.90,WNW,286,6.0,11.0,44,0.00,,,0.00,Wunderground v.1.15,2013-03-06 15:27:00,
2013-03-06 10:32:00,45.4,24.7,29.89,West,272,2.0,5.0,44,0.00,,,0.00,Wunderground v.1.15,2013-03-06 15:32:00,
2013-03-06 10:37:00,45.7,24.5,29.89,West,265,6.0,8.0,43,0.00,,,0.00,Wunderground v.1.15,2013-03-06 15:37:00,
2013-03-06 10:42:00,45.8,24.0,29.89,WNW,297,5.0,6.0,42,0.00,,,0.00,Wunderground v.1.15,2013-03-06 15:42:00,
2013-03-06 10:47:00,45.7,24.5,29.90,West,267,2.0,7.0,43,0.00,,,0.00,Wunderground v.1.15,2013-03-06 15:47:00,
2013-03-06 10:52:00,46.2,25.5,29.90,SW,231,5.0,5.0,44,0.00,,,0.00,Wunderground v.1.15,2013-03-06 15:52:00,
2013-03-06 10:57:00,46.5,24.6,29.90,West,276,2.0,7.0,42,0.00,,,0.00,Wunderground v.1.15,2013-03-06 15:57:00,
2013-03-06 11:02:00,46.7,24.2,29.90,WSW,248,5.0,7.0,41,0.00,,,0.00,Wunderground v.1.15,2013-03-06 16:02:00,
2013-03-06 11:07:00,46.7,24.8,29.90,West,277,3.0,8.0,42,0.00,,,0.00,Wunderground v.1.15,2013-03-06 16:07:00,
2013-03-06 11:12:00,46.5,24.0,29.90,WSW,239,2.0,7.0,41,0.00,,,0.00,Wunderground v.1.15,2013-03-06 16:12:00,
2013-03-06 11:18:00,47.0,25.6,29.90,West,281,2.0,7.0,43,0.00,,,0.00,Wunderground v.1.15,2013-03-06 16:18:00,
2013-03-06 11:23:00,47.3,24.8,29.90,West,266,3.0,9.0,41,0.00,,,0.00,Wunderground v.1.15,2013-03-06 16:23:00,
2013-03-06 11:28:00,47.4,25.4,29.90,WSW,256,1.0,9.0,42,0.00,,,0.00,Wunderground v.1.15,2013-03-06 16:28:00,
2013-03-06 11:33:00,47.4,25.4,29.89,WNW,298,4.0,7.0,42,0.00,,,0.00,Wunderground v.1.15,2013-03-06 16:33:00,
2013-03-06 11:38:00,47.7,25.1,29.89,SW,225,7.0,7.0,41,0.00,,,0.00,Wunderground v.1.15,2013-03-06 16:38:00,
2013-03-06 11:43:00,47.7,25.1,29.89,WSW,249,6.0,6.0,41,0.00,,,0.00,Wunderground v.1.15,2013-03-06 16:43:00,
2013-03-06 11:48:00,48.0,26.0,29.89,West,263,3.0,6.0,42,0.00,,,0.00,Wunderground v.1.15,2013-03-06 16:48:00,
2013-03-06 11:53:00,48.5,26.4,29.89,West,274,5.0,7.0,42,0.00,,,0.00,Wunderground v.1.15,2013-03-06 16:53:00,
2013-03-06 11:58:00,48.6,25.9,29.89,West,281,4.0,7.0,41,0.00,,,0.00,Wunderground v.1.15,2013-03-06 16:58:00,
2013-03-06 12:03:00,48.9,26.8,29.89,WNW,289,1.0,3.0,42,0.00,,,0.00,Wunderground v.1.15,2013-03-06 17:03:00,
2013-03-06 12:08:00,49.2,26.5,29.89,NW,325,4.0,7.0,41,0.00,,,0.00,Wunderground v.1.15,2013-03-06 17:08:00,
2013-03-06 12:13:00,48.9,26.2,29.89,NW,307,3.0,7.0,41,0.00,,,0.00,Wunderground v.1.15,2013-03-06 17:13:00,
2013-03-06 12:19:00,49.2,26.5,29.89,WSW,239,3.0,7.0,41,0.00,,,0.00,Wunderground v.1.15,2013-03-06 17:19:00,
2013-03-06 12:24:00,49.6,26.8,29.89,WSW,243,1.0,8.0,41,0.00,,,0.00,Wunderground v.1.15,2013-03-06 17:24:00,
2013-03-06 12:29:00,49.6,25.6,29.89,West,273,3.0,11.0,39,0.00,,,0.00,Wunderground v.1.15,2013-03-06 17:29:00,
2013-03-06 12:34:00,49.5,25.5,29.88,SW,235,7.0,7.0,39,0.00,,,0.00,Wunderground v.1.15,2013-03-06 17:34:00,
2013-03-06 12:39:00,49.4,25.4,29.88,SW,232,5.0,8.0,39,0.00,,,0.00,Wunderground v.1.15,2013-03-06 17:39:00,
2013-03-06 12:44:00,49.6,25.0,29.88,WSW,248,3.0,8.0,38,0.00,,,0.00,Wunderground v.1.15,2013-03-06 17:44:00,
2013-03-06 12:49:00,49.6,26.8,29.88,West,259,3.0,8.0,41,0.00,,,0.00,Wunderground v.1.15,2013-03-06 17:49:00,
2013-03-06 12:54:00,49.9,26.5,29.88,West,272,2.0,6.0,40,0.00,,,0.00,Wunderground v.1.15,2013-03-06 17:54:00,
2013-03-06 12:59:00,50.2,27.4,29.88,West,279,2.0,7.0,41,0.00,,,0.00,Wunderground v.1.15,2013-03-06 17:59:00,
2013-03-06 13:04:00,50.4,26.3,29.87,West,262,6.0,6.0,39,0.00,,,0.00,Wunderground v.1.15,2013-03-06 18:04:00,
2013-03-06 13:09:00,50.5,27.0,29.87,WNW,293,1.0,7.0,40,0.00,,,0.00,Wunderground v.1.15,2013-03-06 18:09:00,
2013-03-06 13:14:00,50.2,26.2,29.87,West,277,3.0,8.0,39,0.00,,,0.00,Wunderground v.1.15,2013-03-06 18:14:00,
2013-03-06 13:19:00,50.4,25.7,29.86,WSW,253,5.0,8.0,38,0.00,,,0.00,Wunderground v.1.15,2013-03-06 18:19:00,
2013-03-06 13:24:00,50.4,26.3,29.86,NNW,327,3.0,6.0,39,0.00,,,0.00,Wunderground v.1.15,2013-03-06 18:24:00,
2013-03-06 13:29:00,50.7,27.8,29.85,NW,308,2.0,7.0,41,0.00,,,0.00,Wunderground v.1.15,2013-03-06 18:29:00,
2013-03-06 13:34:00,50.7,26.0,29.85,WSW,238,7.0,8.0,38,0.00,,,0.00,Wunderground v.1.15,2013-03-06 18:34:00,
2013-03-06 13:39:00,50.5,26.4,29.85,West,267,2.0,14.0,39,0.00,,,0.00,Wunderground v.1.15,2013-03-06 18:39:00,
2013-03-06 13:44:00,50.8,26.1,29.86,West,265,3.0,8.0,38,0.00,,,0.00,Wunderground v.1.15,2013-03-06 18:44:00,
2013-03-06 13:49:00,50.8,26.7,29.86,WNW,290,2.0,8.0,39,0.00,,,0.00,Wunderground v.1.15,2013-03-06 18:49:00,
2013-03-06 13:54:00,51.0,27.5,29.86,WNW,301,3.0,5.0,40,0.00,,,0.00,Wunderground v.1.15,2013-03-06 18:54:00,
2013-03-06 13:59:00,51.1,27.0,29.85,West,260,5.0,11.0,39,0.00,,,0.00,Wunderground v.1.15,2013-03-06 18:59:00,
2013-03-06 14:04:00,51.1,27.0,29.85,West,266,2.0,8.0,39,0.00,,,0.00,Wunderground v.1.15,2013-03-06 19:04:00,
2013-03-06 14:10:00,51.4,27.9,29.85,WSW,243,2.0,3.0,40,0.00,,,0.00,Wunderground v.1.15,2013-03-06 19:10:00,
2013-03-06 14:15:00,51.9,27.7,29.86,WNW,287,2.0,7.0,39,0.00,,,0.00,Wunderground v.1.15,2013-03-06 19:15:00,
2013-03-06 14:20:00,51.9,27.1,29.86,West,273,1.0,3.0,38,0.00,,,0.00,Wunderground v.1.15,2013-03-06 19:20:00,
2013-03-06 14:25:00,51.6,28.0,29.86,WNW,284,5.0,6.0,40,0.00,,,0.00,Wunderground v.1.15,2013-03-06 19:25:00,
2013-03-06 14:30:00,51.3,27.8,29.86,WNW,294,2.0,3.0,40,0.00,,,0.00,Wunderground v.1.15,2013-03-06 19:30:00,
2013-03-06 14:35:00,51.3,27.2,29.86,NW,304,2.0,7.0,39,0.00,,,0.00,Wunderground v.1.15,2013-03-06 19:35:00,
2013-03-06 14:40:00,51.4,27.2,29.86,SW,235,2.0,4.0,39,0.00,,,0.00,Wunderground v.1.15,2013-03-06 19:40:00,
2013-03-06 14:45:00,51.4,27.2,29.87,NNW,327,6.0,7.0,39,0.00,,,0.00,Wunderground v.1.15,2013-03-06 19:45:00,
2013-03-06 14:50:00,51.3,27.8,29.87,West,266,5.0,5.0,40,0.00,,,0.00,Wunderground v.1.15,2013-03-06 19:50:00,
2013-03-06 14:55:00,51.1,28.2,29.87,West,270,1.0,8.0,41,0.00,,,0.00,Wunderground v.1.15,2013-03-06 19:55:00,
2013-03-06 15:00:00,51.1,27.6,29.87,WSW,253,6.0,6.0,40,0.00,,,0.00,Wunderground v.1.15,2013-03-06 20:00:00,
2013-03-06 15:05:00,51.1,27.0,29.87,West,272,2.0,7.0,39,0.00,,,0.00,Wunderground v.1.15,2013-03-06 20:05:00,
2013-03-06 15:10:00,51.1,27.6,29.87,WSW,255,3.0,4.0,40,0.00,,,0.00,Wunderground v.1.15,2013-03-06 20:10:00,
2013-03-06 15:15:00,51.4,27.9,29.87,West,279,2.0,6.0,40,0.00,,,0.00,Wunderground v.1.15,2013-03-06 20:15:00,
2013-03-06 15:20:00,51.4,27.9,29.87,WSW,257,5.0,5.0,40,0.00,,,0.00,Wunderground v.1.15,2013-03-06 20:20:00,
2013-03-06 15:25:00,51.6,28.0,29.87,WNW,291,1.0,5.0,40,0.00,,,0.00,Wunderground v.1.15,2013-03-06 20:25:00,
2013-03-06 15:30:00,51.7,27.5,29.87,WSW,241,2.0,6.0,39,0.00,,,0.00,Wunderground v.1.15,2013-03-06 20:30:00,
2013-03-06 15:35:00,51.9,28.3,29.87,West,272,3.0,7.0,40,0.00,,,0.00,Wunderground v.1.15,2013-03-06 20:35:00,
2013-03-06 15:40:00,51.6,27.4,29.87,NW,320,3.0,4.0,39,0.00,,,0.00,Wunderground v.1.15,2013-03-06 20:40:00,
2013-03-06 15:45:00,51.7,28.1,29.88,West,267,5.0,6.0,40,0.00,,,0.00,Wunderground v.1.15,2013-03-06 20:45:00,
2013-03-06 15:50:00,52.2,28.0,29.88,WSW,253,6.0,6.0,39,0.00,,,0.00,Wunderground v.1.15,2013-03-06 20:50:00,
2013-03-06 15:55:00,52.0,27.8,29.88,WSW,255,1.0,7.0,39,0.00,,,0.00,Wunderground v.1.15,2013-03-06 20:55:00,
2013-03-06 16:00:00,52.0,28.4,29.89,WNW,303,3.0,4.0,40,0.00,,,0.00,Wunderground v.1.15,2013-03-06 21:00:00,
2013-03-06 16:05:00,52.0,27.8,29.89,West,270,3.0,5.0,39,0.00,,,0.00,Wunderground v.1.15,2013-03-06 21:05:00,
2013-03-06 16:10:00,52.2,28.6,29.89,NW,308,2.0,3.0,40,0.00,,,0.00,Wunderground v.1.15,2013-03-06 21:10:00,
2013-03-06 16:15:00,52.2,28.6,29.89,NW,307,1.0,5.0,40,0.00,,,0.00,Wunderground v.1.15,2013-03-06 21:15:00,
2013-03-06 16:20:00,52.3,28.7,29.89,WNW,290,3.0,3.0,40,0.00,,,0.00,Wunderground v.1.15,2013-03-06 21:20:00,
2013-03-06 16:25:00,52.3,28.7,29.89,NW,304,1.0,7.0,40,0.00,,,0.00,Wunderground v.1.15,2013-03-06 21:25:00,
2013-03-06 16:30:00,52.3,28.7,29.89,WSW,245,1.0,2.0,40,0.00,,,0.00,Wunderground v.1.15,2013-03-06 21:30:00,
2013-03-06 16:35:00,52.3,28.7,29.89,West,267,2.0,6.0,40,0.00,,,0.00,Wunderground v.1.15,2013-03-06 21:35:00,
2013-03-06 16:40:00,52.3,28.7,29.89,WSW,248,2.0,3.0,40,0.00,,,0.00,Wunderground v.1.15,2013-03-06 21:40:00,
2013-03-06 16:45:00,52.3,29.3,29.90,WSW,249,2.0,6.0,41,0.00,,,0.00,Wunderground v.1.15,2013-03-06 21:45:00,
2013-03-06 16:50:00,52.3,28.7,29.90,West,266,2.0,3.0,40,0.00,,,0.00,Wunderground v.1.15,2013-03-06 21:50:00,
2013-03-06 16:55:00,52.3,28.7,29.90,WNW,290,3.0,6.0,40,0.00,,,0.00,Wunderground v.1.15,2013-03-06 21:55:00,
2013-03-06 17:00:00,52.2,29.2,29.90,WSW,243,2.0,5.0,41,0.00,,,0.00,Wunderground v.1.15,2013-03-06 22:00:00,
2013-03-06 17:05:00,52.2,29.2,29.90,West,273,1.0,10.0,41,0.00,,,0.00,Wunderground v.1.15,2013-03-06 22:05:00,
2013-03-06 17:10:00,52.2,28.6,29.90,West,279,2.0,5.0,40,0.00,,,0.00,Wunderground v.1.15,2013-03-06 22:10:00,
2013-03-06 17:15:00,52.0,29.0,29.91,WNW,293,2.0,5.0,41,0.00,,,0.00,Wunderground v.1.15,2013-03-06 22:15:00,
2013-03-06 17:20:00,52.0,29.0,29.91,NW,322,4.0,4.0,41,0.00,,,0.00,Wunderground v.1.15,2013-03-06 22:20:00,
2013-03-06 17:25:00,51.9,28.9,29.91,NW,318,4.0,7.0,41,0.00,,,0.00,Wunderground v.1.15,2013-03-06 22:25:00,
2013-03-06 17:30:00,51.7,29.3,29.91,West,260,2.0,3.0,42,0.00,,,0.00,Wunderground v.1.15,2013-03-06 22:30:00,
2013-03-06 17:35:00,51.6,29.2,29.91,NW,310,6.0,6.0,42,0.00,,,0.00,Wunderground v.1.15,2013-03-06 22:35:00,
2013-03-06 17:40:00,51.4,29.6,29.91,WNW,297,2.0,3.0,43,0.00,,,0.00,Wunderground v.1.15,2013-03-06 22:40:00,
2013-03-06 17:45:00,51.3,29.5,29.92,West,273,1.0,5.0,43,0.00,,,0.00,Wunderground v.1.15,2013-03-06 22:45:00,
2013-03-06 17:51:00,51.3,29.5,29.92,West,280,2.0,2.0,43,0.00,,,0.00,Wunderground v.1.15,2013-03-06 22:51:00,
2013-03-06 17:55:00,51.1,29.4,29.92,West,273,1.0,5.0,43,0.00,,,0.00,Wunderground v.1.15,2013-03-06 22:55:00,
2013-03-06 18:01:00,51.0,29.3,29.93,West,262,2.0,3.0,43,0.00,,,0.00,Wunderground v.1.15,2013-03-06 23:01:00,
2013-03-06 18:06:00,50.8,29.1,29.93,West,269,1.0,4.0,43,0.00,,,0.00,Wunderground v.1.15,2013-03-06 23:06:00,
2013-03-06 18:11:00,50.7,29.6,29.93,West,267,2.0,6.0,44,0.00,,,0.00,Wunderground v.1.15,2013-03-06 23:11:00,
2013-03-06 18:16:00,50.5,29.4,29.95,WSW,246,5.0,6.0,44,0.00,,,0.00,Wunderground v.1.15,2013-03-06 23:16:00,
2013-03-06 18:21:00,50.4,29.3,29.95,NE,36,2.0,3.0,44,0.00,,,0.00,Wunderground v.1.15,2013-03-06 23:21:00,
2013-03-06 18:26:00,50.2,29.7,29.95,WSW,248,3.0,8.0,45,0.00,,,0.00,Wunderground v.1.15,2013-03-06 23:26:00,
2013-03-06 18:31:00,50.1,29.6,29.96,WNW,296,0.0,2.0,45,0.00,,,0.00,Wunderground v.1.15,2013-03-06 23:31:00,
2013-03-06 18:36:00,49.9,29.4,29.96,WNW,293,3.0,6.0,45,0.00,,,0.00,Wunderground v.1.15,2013-03-06 23:36:00,
2013-03-06 18:41:00,49.8,29.3,29.96,West,260,0.0,2.0,45,0.00,,,0.00,Wunderground v.1.15,2013-03-06 23:41:00,
2013-03-06 18:46:00,49.6,29.6,29.97,WSW,249,2.0,6.0,46,0.00,,,0.00,Wunderground v.1.15,2013-03-06 23:46:00,
2013-03-06 18:51:00,49.5,29.6,29.97,WNW,290,1.0,3.0,46,0.00,,,0.00,Wunderground v.1.15,2013-03-06 23:51:00,
2013-03-06 18:56:00,49.5,29.6,29.97,West,260,0.0,3.0,46,0.00,,,0.00,Wunderground v.1.15,2013-03-06 23:56:00,
2013-03-06 19:01:00,49.2,29.8,29.98,West,262,0.0,2.0,47,0.00,,,0.00,Wunderground v.1.15,2013-03-07 00:01:00,
2013-03-06 19:06:00,49.1,29.7,29.98,WNW,296,1.0,2.0,47,0.00,,,0.00,Wunderground v.1.15,2013-03-07 00:06:00,
2013-03-06 19:11:00,49.1,29.7,29.98,NW,313,0.0,3.0,47,0.00,,,0.00,Wunderground v.1.15,2013-03-07 00:11:00,
2013-03-06 19:16:00,48.9,29.5,29.99,NW,311,2.0,4.0,47,0.00,,,0.00,Wunderground v.1.15,2013-03-07 00:16:00,
2013-03-06 19:21:00,48.9,29.5,29.99,West,273,0.0,2.0,47,0.00,,,0.00,Wunderground v.1.15,2013-03-07 00:21:00,
2013-03-06 19:26:00,48.9,30.1,29.99,WSW,255,1.0,2.0,48,0.00,,,0.00,Wunderground v.1.15,2013-03-07 00:26:00,
2013-03-06 19:31:00,48.8,30.0,30.00,WNW,301,3.0,3.0,48,0.00,,,0.00,Wunderground v.1.15,2013-03-07 00:31:00,
2013-03-06 19:37:00,48.6,29.8,30.00,West,274,0.0,3.0,48,0.00,,,0.00,Wunderground v.1.15,2013-03-07 00:37:00,
2013-03-06 19:42:00,48.6,29.8,30.00,WNW,301,2.0,3.0,48,0.00,,,0.00,Wunderground v.1.15,2013-03-07 00:42:00,
2013-03-06 19:47:00,48.6,29.8,30.01,NW,311,2.0,3.0,48,0.00,,,0.00,Wunderground v.1.15,2013-03-07 00:47:00,
2013-03-06 19:52:00,48.5,29.7,30.01,WNW,303,1.0,1.0,48,0.00,,,0.00,Wunderground v.1.15,2013-03-07 00:52:00,
2013-03-06 19:57:00,48.5,29.7,30.01,WNW,283,1.0,3.0,48,0.00,,,0.00,Wunderground v.1.15,2013-03-07 00:57:00,
2013-03-06 20:02:00,48.3,29.5,30.02,NW,313,1.0,3.0,48,0.00,,,0.00,Wunderground v.1.15,2013-03-07 01:02:00,
2013-03-06 20:07:00,48.3,30.0,30.02,WNW,294,1.0,3.0,49,0.00,,,0.00,Wunderground v.1.15,2013-03-07 01:07:00,
2013-03-06 20:12:00,48.2,29.9,30.02,WSW,257,1.0,2.0,49,0.00,,,0.00,Wunderground v.1.15,2013-03-07 01:12:00,
2013-03-06 20:17:00,48.2,29.9,30.03,WNW,301,1.0,3.0,49,0.00,,,0.00,Wunderground v.1.15,2013-03-07 01:17:00,
2013-03-06 20:22:00,48.2,29.9,30.03,NW,313,0.0,2.0,49,0.00,,,0.00,Wunderground v.1.15,2013-03-07 01:22:00,
2013-03-06 20:27:00,48.0,29.7,30.03,WNW,297,1.0,3.0,49,0.00,,,0.00,Wunderground v.1.15,2013-03-07 01:27:00,
2013-03-06 20:32:00,48.0,30.2,30.04,WNW,290,2.0,3.0,50,0.00,,,0.00,Wunderground v.1.15,2013-03-07 01:32:00,
2013-03-06 20:37:00,48.0,30.2,30.04,West,267,0.0,3.0,50,0.00,,,0.00,Wunderground v.1.15,2013-03-07 01:37:00,
2013-03-06 20:42:00,47.9,30.1,30.04,NNW,341,0.0,2.0,50,0.00,,,0.00,Wunderground v.1.15,2013-03-07 01:42:00,
2013-03-06 20:47:00,47.7,30.0,30.05,SW,236,0.0,3.0,50,0.00,,,0.00,Wunderground v.1.15,2013-03-07 01:47:00,
2013-03-06 20:52:00,47.6,30.3,30.05,NW,304,0.0,2.0,51,0.00,,,0.00,Wunderground v.1.15,2013-03-07 01:52:00,
2013-03-06 20:57:00,47.4,30.2,30.05,NW,304,0.0,2.0,51,0.00,,,0.00,Wunderground v.1.15,2013-03-07 01:57:00,
2013-03-06 21:02:00,47.3,30.5,30.06,NW,304,0.0,0.0,52,0.00,,,0.00,Wunderground v.1.15,2013-03-07 02:02:00,
2013-03-06 21:07:00,47.1,30.4,30.06,NW,304,0.0,2.0,52,0.00,,,0.00,Wunderground v.1.15,2013-03-07 02:07:00,
2013-03-06 21:12:00,47.0,30.3,30.06,NW,304,0.0,1.0,52,0.00,,,0.00,Wunderground v.1.15,2013-03-07 02:12:00,
2013-03-06 21:17:00,46.8,30.6,30.06,NW,304,0.0,1.0,53,0.00,,,0.00,Wunderground v.1.15,2013-03-07 02:17:00,
2013-03-06 21:22:00,46.8,30.6,30.06,NW,304,1.0,2.0,53,0.00,,,0.00,Wunderground v.1.15,2013-03-07 02:22:00,
2013-03-06 21:27:00,46.7,30.0,30.06,NW,304,1.0,2.0,52,0.00,,,0.00,Wunderground v.1.15,2013-03-07 02:27:00,
2013-03-06 21:32:00,46.7,30.5,30.06,NW,304,0.0,1.0,53,0.00,,,0.00,Wunderground v.1.15,2013-03-07 02:32:00,
2013-03-06 21:37:00,46.7,30.0,30.06,WNW,303,0.0,2.0,52,0.00,,,0.00,Wunderground v.1.15,2013-03-07 02:37:00,
2013-03-06 21:42:00,46.7,30.0,30.06,NW,311,0.0,1.0,52,0.00,,,0.00,Wunderground v.1.15,2013-03-07 02:42:00,
2013-03-06 21:48:00,46.5,30.3,30.07,NW,311,0.0,1.0,53,0.00,,,0.00,Wunderground v.1.15,2013-03-07 02:48:00,
2013-03-06 21:54:00,46.5,30.3,30.07,NW,322,0.0,1.0,53,0.00,,,0.00,Wunderground v.1.15,2013-03-07 02:54:00,
2013-03-06 22:00:00,46.4,30.2,30.08,NW,322,0.0,0.0,53,0.00,,,0.00,Wunderground v.1.15,2013-03-07 03:00:00,
2013-03-06 22:06:00,46.4,30.6,30.08,NW,322,0.0,1.0,54,0.00,,,0.00,Wunderground v.1.15,2013-03-07 03:06:00,
2013-03-06 22:11:00,46.2,30.0,30.08,NW,322,0.0,1.0,53,0.00,,,0.00,Wunderground v.1.15,2013-03-07 03:11:00,
2013-03-06 22:17:00,46.1,30.4,30.08,NW,322,0.0,1.0,54,0.00,,,0.00,Wunderground v.1.15,2013-03-07 03:17:00,
2013-03-06 22:22:00,46.0,30.3,30.08,NW,322,0.0,0.0,54,0.00,,,0.00,Wunderground v.1.15,2013-03-07 03:22:00,
2013-03-06 22:28:00,45.8,30.5,30.08,NW,322,0.0,1.0,55,0.00,,,0.00,Wunderground v.1.15,2013-03-07 03:28:00,
2013-03-06 22:33:00,45.7,30.4,30.08,NW,322,0.0,0.0,55,0.00,,,0.00,Wunderground v.1.15,2013-03-07 03:33:00,
2013-03-06 22:39:00,45.5,30.3,30.08,WSW,241,0.0,0.0,55,0.00,,,0.00,Wunderground v.1.15,2013-03-07 03:39:00,
2013-03-06 22:44:00,45.4,30.2,30.08,WSW,239,0.0,0.0,55,0.00,,,0.00,Wunderground v.1.15,2013-03-07 03:44:00,
2013-03-06 22:49:00,45.2,30.4,30.08,WSW,239,0.0,0.0,56,0.00,,,0.00,Wunderground v.1.15,2013-03-07 03:49:00,
2013-03-06 22:54:00,45.1,30.8,30.08,WSW,239,0.0,0.0,57,0.00,,,0.00,Wunderground v.1.15,2013-03-07 03:54:00,
2013-03-06 23:00:00,44.9,30.6,30.08,WSW,239,0.0,0.0,57,0.00,,,0.00,Wunderground v.1.15,2013-03-07 04:00:00,
2013-03-06 23:06:00,44.6,30.3,30.08,WSW,239,0.0,0.0,57,0.00,,,0.00,Wunderground v.1.15,2013-03-07 04:06:00,
2013-03-06 23:11:00,44.5,30.2,30.08,WSW,241,0.0,0.0,57,0.00,,,0.00,Wunderground v.1.15,2013-03-07 04:11:00,
2013-03-06 23:17:00,44.2,30.3,30.09,WSW,239,0.0,0.0,58,0.00,,,0.00,Wunderground v.1.15,2013-03-07 04:17:00,
2013-03-06 23:22:00,44.1,30.3,30.09,WSW,239,0.0,0.0,58,0.00,,,0.00,Wunderground v.1.15,2013-03-07 04:22:00,
2013-03-06 23:27:00,43.9,30.5,30.09,WSW,239,0.0,0.0,59,0.00,,,0.00,Wunderground v.1.15,2013-03-07 04:27:00,
2013-03-06 23:32:00,43.8,30.4,30.09,WSW,241,0.0,0.0,59,0.00,,,0.00,Wunderground v.1.15,2013-03-07 04:32:00,
2013-03-06 23:37:00,43.6,30.2,30.09,WSW,239,0.0,0.0,59,0.00,,,0.00,Wunderground v.1.15,2013-03-07 04:37:00,
2013-03-06 23:42:00,43.3,30.3,30.09,WSW,239,0.0,0.0,60,0.00,,,0.00,Wunderground v.1.15,2013-03-07 04:42:00,
2013-03-06 23:47:00,43.3,30.3,30.09,WSW,239,0.0,1.0,60,0.00,,,0.00,Wunderground v.1.15,2013-03-07 04:47:00,
2013-03-06 23:52:00,43.3,30.3,30.09,WSW,239,0.0,0.0,60,0.00,,,0.00,Wunderground v.1.15,2013-03-07 04:52:00,
2013-03-06 23:57:00,43.2,30.2,30.09,WSW,239,0.0,1.0,60,0.00,,,0.00,Wunderground v.1.15,2013-03-07 04:57:00,